sensor_id;sensor_type;location;lat;lon;timestamp;temperature;humidity
21568;DHT22;10944;42.590;12.630;2022-12-01T00:00:13;4.20;99.90
21568;DHT22;10944;42.590;12.630;2022-12-01T00:02:39;4.10;99.90
21568;DHT22;10944;42.590;12.630;2022-12-01T00:05:05;4.10;99.90
21568;DHT22;10944;42.590;12.630;2022-12-01T00:07:30;4.10;99.90
21568;DHT22;10944;42.590;12.630;2022-12-01T00:09:56;4.20;99.90
21568;DHT22;10944;42.590;12.630;2022-12-01T00:12:40;4.20;99.90
21568;DHT22;10944;42.590;12.630;2022-12-01T00:15:09;4.20;99.90
21568;DHT22;10944;42.590;12.630;2022-12-01T00:17:36;4.20;99.90
21568;DHT22;10944;42.590;12.630;2022-12-01T00:20:02;4.10;99.90
21568;DHT22;10944;42.590;12.630;2022-12-01T00:22:28;4.00;99.90
21568;DHT22;10944;42.590;12.630;2022-12-01T00:24:54;4.00;99.90
21568;DHT22;10944;42.590;12.630;2022-12-01T00:27:19;4.00;99.90
21568;DHT22;10944;42.590;12.630;2022-12-01T00:29:45;3.90;99.90
21568;DHT22;10944;42.590;12.630;2022-12-01T00:32:11;3.90;99.90
21568;DHT22;10944;42.590;12.630;2022-12-01T00:34:37;4.10;99.90
21568;DHT22;10944;42.590;12.630;2022-12-01T00:37:03;4.10;99.90
21568;DHT22;10944;42.590;12.630;2022-12-01T00:39:29;4.00;99.90
21568;DHT22;10944;42.590;12.630;2022-12-01T00:41:55;4.00;99.90
21568;DHT22;10944;42.590;12.630;2022-12-01T00:44:20;4.00;99.90
21568;DHT22;10944;42.590;12.630;2022-12-01T00:46:46;3.90;99.90
21568;DHT22;10944;42.590;12.630;2022-12-01T00:49:12;4.00;99.90
21568;DHT22;10944;42.590;12.630;2022-12-01T00:51:38;4.10;99.90
21568;DHT22;10944;42.590;12.630;2022-12-01T00:54:04;4.10;99.90
21568;DHT22;10944;42.590;12.630;2022-12-01T00:56:29;4.10;99.90
21568;DHT22;10944;42.590;12.630;2022-12-01T00:58:55;4.00;99.90
21568;DHT22;10944;42.590;12.630;2022-12-01T01:01:21;4.10;99.90
21568;DHT22;10944;42.590;12.630;2022-12-01T01:03:46;4.10;99.90
21568;DHT22;10944;42.590;12.630;2022-12-01T01:06:12;4.00;99.90
21568;DHT22;10944;42.590;12.630;2022-12-01T01:08:38;4.00;99.90
21568;DHT22;10944;42.590;12.630;2022-12-01T01:11:05;4.00;99.90
21568;DHT22;10944;42.590;12.630;2022-12-01T01:13:31;4.20;99.90
21568;DHT22;10944;42.590;12.630;2022-12-01T01:16:03;4.10;99.90
21568;DHT22;10944;42.590;12.630;2022-12-01T01:18:29;4.10;99.90
21568;DHT22;10944;42.590;12.630;2022-12-01T01:21:01;4.00;99.90
21568;DHT22;10944;42.590;12.630;2022-12-01T01:23:28;3.90;99.90
21568;DHT22;10944;42.590;12.630;2022-12-01T01:25:59;3.90;99.90
21568;DHT22;10944;42.590;12.630;2022-12-01T01:28:24;3.80;99.90
21568;DHT22;10944;42.590;12.630;2022-12-01T01:30:50;3.80;99.90
21568;DHT22;10944;42.590;12.630;2022-12-01T01:33:16;3.80;99.90
21568;DHT22;10944;42.590;12.630;2022-12-01T01:35:41;3.80;99.90
21568;DHT22;10944;42.590;12.630;2022-12-01T01:38:07;3.80;99.90
21568;DHT22;10944;42.590;12.630;2022-12-01T01:40:33;3.80;99.90
21568;DHT22;10944;42.590;12.630;2022-12-01T01:42:59;3.80;99.90
21568;DHT22;10944;42.590;12.630;2022-12-01T01:45:28;3.80;99.90
21568;DHT22;10944;42.590;12.630;2022-12-01T01:47:57;3.70;99.90
21568;DHT22;10944;42.590;12.630;2022-12-01T01:50:26;3.70;99.90
21568;DHT22;10944;42.590;12.630;2022-12-01T01:53:00;3.70;99.90
21568;DHT22;10944;42.590;12.630;2022-12-01T01:55:28;3.70;99.90
21568;DHT22;10944;42.590;12.630;2022-12-01T01:57:54;3.80;99.90
21568;DHT22;10944;42.590;12.630;2022-12-01T02:00:21;3.70;99.90
21568;DHT22;10944;42.590;12.630;2022-12-01T02:02:47;3.70;99.90
21568;DHT22;10944;42.590;12.630;2022-12-01T02:05:21;3.70;99.90
21568;DHT22;10944;42.590;12.630;2022-12-01T02:07:47;3.70;99.90
21568;DHT22;10944;42.590;12.630;2022-12-01T02:10:15;3.70;99.90
21568;DHT22;10944;42.590;12.630;2022-12-01T02:13:07;3.80;99.90
21568;DHT22;10944;42.590;12.630;2022-12-01T02:26:58;3.90;99.90
21568;DHT22;10944;42.590;12.630;2022-12-01T02:29:32;3.80;99.90
21568;DHT22;10944;42.590;12.630;2022-12-01T02:32:26;3.80;99.90
21568;DHT22;10944;42.590;12.630;2022-12-01T02:35:07;3.70;99.90
21568;DHT22;10944;42.590;12.630;2022-12-01T02:37:46;3.50;99.90
21568;DHT22;10944;42.590;12.630;2022-12-01T02:40:26;3.50;99.90
21568;DHT22;10944;42.590;12.630;2022-12-01T02:43:00;3.50;99.90
21568;DHT22;10944;42.590;12.630;2022-12-01T02:48:34;3.50;99.90
21568;DHT22;10944;42.590;12.630;2022-12-01T02:51:32;3.50;99.90
21568;DHT22;10944;42.590;12.630;2022-12-01T02:53:59;3.40;99.90
21568;DHT22;10944;42.590;12.630;2022-12-01T02:56:25;3.50;99.90
21568;DHT22;10944;42.590;12.630;2022-12-01T02:58:51;3.40;99.90
21568;DHT22;10944;42.590;12.630;2022-12-01T03:01:42;3.40;99.90
21568;DHT22;10944;42.590;12.630;2022-12-01T03:04:38;3.50;99.90
21568;DHT22;10944;42.590;12.630;2022-12-01T03:09:45;3.40;99.90
21568;DHT22;10944;42.590;12.630;2022-12-01T03:12:28;3.40;99.90
21568;DHT22;10944;42.590;12.630;2022-12-01T03:20:18;3.50;99.90
21568;DHT22;10944;42.590;12.630;2022-12-01T03:22:50;3.60;99.90
21568;DHT22;10944;42.590;12.630;2022-12-01T03:25:19;3.60;99.90
21568;DHT22;10944;42.590;12.630;2022-12-01T03:27:47;3.60;99.90
21568;DHT22;10944;42.590;12.630;2022-12-01T03:30:15;3.60;99.90
21568;DHT22;10944;42.590;12.630;2022-12-01T03:32:51;3.70;99.90
21568;DHT22;10944;42.590;12.630;2022-12-01T03:35:22;3.60;99.90
21568;DHT22;10944;42.590;12.630;2022-12-01T03:37:54;3.60;99.90
21568;DHT22;10944;42.590;12.630;2022-12-01T03:40:22;3.60;99.90
21568;DHT22;10944;42.590;12.630;2022-12-01T03:42:56;3.70;99.90
21568;DHT22;10944;42.590;12.630;2022-12-01T03:47:54;3.70;99.90
21568;DHT22;10944;42.590;12.630;2022-12-01T03:50:20;3.70;99.90
21568;DHT22;10944;42.590;12.630;2022-12-01T03:53:09;3.70;99.90
21568;DHT22;10944;42.590;12.630;2022-12-01T03:55:39;3.60;99.90
21568;DHT22;10944;42.590;12.630;2022-12-01T03:58:14;3.60;99.90
21568;DHT22;10944;42.590;12.630;2022-12-01T04:00:41;3.60;99.90
21568;DHT22;10944;42.590;12.630;2022-12-01T04:03:16;3.60;99.90
21568;DHT22;10944;42.590;12.630;2022-12-01T04:05:42;3.60;99.90
21568;DHT22;10944;42.590;12.630;2022-12-01T04:08:08;3.60;99.90
21568;DHT22;10944;42.590;12.630;2022-12-01T04:10:33;3.60;99.90
21568;DHT22;10944;42.590;12.630;2022-12-01T04:12:59;3.60;99.90
21568;DHT22;10944;42.590;12.630;2022-12-01T04:15:26;3.60;99.90
21568;DHT22;10944;42.590;12.630;2022-12-01T04:17:52;3.70;99.90
21568;DHT22;10944;42.590;12.630;2022-12-01T04:20:18;3.70;99.90
21568;DHT22;10944;42.590;12.630;2022-12-01T04:22:44;3.70;99.90
21568;DHT22;10944;42.590;12.630;2022-12-01T04:25:10;3.70;99.90
21568;DHT22;10944;42.590;12.630;2022-12-01T04:27:37;3.70;99.90
21568;DHT22;10944;42.590;12.630;2022-12-01T04:30:05;3.70;99.90
21568;DHT22;10944;42.590;12.630;2022-12-01T04:32:37;3.70;99.90
21568;DHT22;10944;42.590;12.630;2022-12-01T04:35:03;3.60;99.90
21568;DHT22;10944;42.590;12.630;2022-12-01T04:37:29;3.60;99.90
21568;DHT22;10944;42.590;12.630;2022-12-01T04:39:55;3.70;99.90
21568;DHT22;10944;42.590;12.630;2022-12-01T04:42:20;3.70;99.90
21568;DHT22;10944;42.590;12.630;2022-12-01T04:44:46;3.70;99.90
21568;DHT22;10944;42.590;12.630;2022-12-01T04:47:12;3.60;99.90
21568;DHT22;10944;42.590;12.630;2022-12-01T04:49:37;3.60;99.90
21568;DHT22;10944;42.590;12.630;2022-12-01T04:52:03;3.50;99.90
21568;DHT22;10944;42.590;12.630;2022-12-01T04:54:29;3.40;99.90
21568;DHT22;10944;42.590;12.630;2022-12-01T04:56:55;3.50;99.90
21568;DHT22;10944;42.590;12.630;2022-12-01T04:59:21;3.50;99.90
21568;DHT22;10944;42.590;12.630;2022-12-01T05:01:46;3.50;99.90
21568;DHT22;10944;42.590;12.630;2022-12-01T05:04:13;3.40;99.90
21568;DHT22;10944;42.590;12.630;2022-12-01T05:06:39;3.50;99.90
21568;DHT22;10944;42.590;12.630;2022-12-01T05:09:05;3.40;99.90
21568;DHT22;10944;42.590;12.630;2022-12-01T05:11:32;3.40;99.90
21568;DHT22;10944;42.590;12.630;2022-12-01T05:13:58;3.40;99.90
21568;DHT22;10944;42.590;12.630;2022-12-01T05:16:29;3.40;99.90
21568;DHT22;10944;42.590;12.630;2022-12-01T05:19:01;3.40;99.90
21568;DHT22;10944;42.590;12.630;2022-12-01T05:21:48;3.40;99.90
21568;DHT22;10944;42.590;12.630;2022-12-01T05:24:14;3.40;99.90
21568;DHT22;10944;42.590;12.630;2022-12-01T05:26:41;3.40;99.90
21568;DHT22;10944;42.590;12.630;2022-12-01T05:29:07;3.50;99.90
21568;DHT22;10944;42.590;12.630;2022-12-01T05:31:33;3.60;99.90
21568;DHT22;10944;42.590;12.630;2022-12-01T05:33:59;3.50;99.90
21568;DHT22;10944;42.590;12.630;2022-12-01T05:36:25;3.40;99.90
21568;DHT22;10944;42.590;12.630;2022-12-01T05:38:51;3.40;99.90
21568;DHT22;10944;42.590;12.630;2022-12-01T05:41:17;3.30;99.90
21568;DHT22;10944;42.590;12.630;2022-12-01T05:43:42;3.30;99.90
21568;DHT22;10944;42.590;12.630;2022-12-01T05:46:08;3.30;99.90
21568;DHT22;10944;42.590;12.630;2022-12-01T05:48:34;3.20;99.90
21568;DHT22;10944;42.590;12.630;2022-12-01T05:51:06;3.20;99.90
21568;DHT22;10944;42.590;12.630;2022-12-01T05:53:32;3.10;99.90
21568;DHT22;10944;42.590;12.630;2022-12-01T05:55:58;3.10;99.90
21568;DHT22;10944;42.590;12.630;2022-12-01T05:58:24;3.00;99.90
21568;DHT22;10944;42.590;12.630;2022-12-01T06:00:49;3.10;99.90
21568;DHT22;10944;42.590;12.630;2022-12-01T06:03:15;3.00;99.90
21568;DHT22;10944;42.590;12.630;2022-12-01T06:05:41;3.00;99.90
21568;DHT22;10944;42.590;12.630;2022-12-01T06:08:06;3.00;99.90
21568;DHT22;10944;42.590;12.630;2022-12-01T06:10:32;3.10;99.90
21568;DHT22;10944;42.590;12.630;2022-12-01T06:12:58;3.00;99.90
21568;DHT22;10944;42.590;12.630;2022-12-01T06:15:25;3.10;99.90
21568;DHT22;10944;42.590;12.630;2022-12-01T06:17:50;3.10;99.90
21568;DHT22;10944;42.590;12.630;2022-12-01T06:20:16;3.10;99.90
21568;DHT22;10944;42.590;12.630;2022-12-01T06:22:42;3.10;99.90
21568;DHT22;10944;42.590;12.630;2022-12-01T06:25:08;3.10;99.90
21568;DHT22;10944;42.590;12.630;2022-12-01T06:27:34;3.20;99.90
21568;DHT22;10944;42.590;12.630;2022-12-01T06:29:59;3.20;99.90
21568;DHT22;10944;42.590;12.630;2022-12-01T06:32:25;3.20;99.90
21568;DHT22;10944;42.590;12.630;2022-12-01T06:34:51;3.30;99.90
21568;DHT22;10944;42.590;12.630;2022-12-01T06:37:16;3.30;99.90
21568;DHT22;10944;42.590;12.630;2022-12-01T06:39:42;3.40;99.90
21568;DHT22;10944;42.590;12.630;2022-12-01T06:42:08;3.30;99.90
21568;DHT22;10944;42.590;12.630;2022-12-01T06:44:34;3.30;99.90
21568;DHT22;10944;42.590;12.630;2022-12-01T06:47:00;3.30;99.90
21568;DHT22;10944;42.590;12.630;2022-12-01T06:49:26;3.40;99.90
21568;DHT22;10944;42.590;12.630;2022-12-01T06:51:51;3.50;99.90
21568;DHT22;10944;42.590;12.630;2022-12-01T06:54:17;3.50;99.90
21568;DHT22;10944;42.590;12.630;2022-12-01T06:56:43;3.70;99.90
21568;DHT22;10944;42.590;12.630;2022-12-01T06:59:10;3.70;99.90
21568;DHT22;10944;42.590;12.630;2022-12-01T07:01:36;3.80;99.90
21568;DHT22;10944;42.590;12.630;2022-12-01T07:04:02;3.90;99.90
21568;DHT22;10944;42.590;12.630;2022-12-01T07:06:31;4.00;99.90
21568;DHT22;10944;42.590;12.630;2022-12-01T07:08:57;4.20;99.90
21568;DHT22;10944;42.590;12.630;2022-12-01T07:11:23;4.30;99.90
21568;DHT22;10944;42.590;12.630;2022-12-01T07:13:52;4.40;99.90
21568;DHT22;10944;42.590;12.630;2022-12-01T07:16:19;4.50;99.90
21568;DHT22;10944;42.590;12.630;2022-12-01T07:18:45;4.60;99.90
21568;DHT22;10944;42.590;12.630;2022-12-01T07:21:12;4.60;99.90
21568;DHT22;10944;42.590;12.630;2022-12-01T07:23:38;4.60;99.90
21568;DHT22;10944;42.590;12.630;2022-12-01T07:26:13;4.60;99.90
21568;DHT22;10944;42.590;12.630;2022-12-01T07:28:39;4.60;99.90
21568;DHT22;10944;42.590;12.630;2022-12-01T07:31:07;4.50;99.90
21568;DHT22;10944;42.590;12.630;2022-12-01T07:33:34;4.70;99.90
21568;DHT22;10944;42.590;12.630;2022-12-01T07:35:59;4.60;99.90
21568;DHT22;10944;42.590;12.630;2022-12-01T07:38:29;4.60;99.90
21568;DHT22;10944;42.590;12.630;2022-12-01T07:40:59;4.60;99.90
21568;DHT22;10944;42.590;12.630;2022-12-01T07:43:25;4.60;99.90
21568;DHT22;10944;42.590;12.630;2022-12-01T07:45:51;4.60;99.90
21568;DHT22;10944;42.590;12.630;2022-12-01T07:48:17;4.70;99.90
21568;DHT22;10944;42.590;12.630;2022-12-01T07:50:42;4.80;99.90
21568;DHT22;10944;42.590;12.630;2022-12-01T07:53:08;4.80;99.90
21568;DHT22;10944;42.590;12.630;2022-12-01T07:55:33;4.90;99.90
21568;DHT22;10944;42.590;12.630;2022-12-01T07:57:59;4.90;99.90
21568;DHT22;10944;42.590;12.630;2022-12-01T08:00:25;5.00;99.90
21568;DHT22;10944;42.590;12.630;2022-12-01T08:02:51;5.10;99.90
21568;DHT22;10944;42.590;12.630;2022-12-01T08:05:17;5.20;99.90
21568;DHT22;10944;42.590;12.630;2022-12-01T08:07:42;5.30;99.90
21568;DHT22;10944;42.590;12.630;2022-12-01T08:10:08;5.40;99.90
21568;DHT22;10944;42.590;12.630;2022-12-01T08:12:40;5.50;99.90
21568;DHT22;10944;42.590;12.630;2022-12-01T08:15:06;5.60;99.90
21568;DHT22;10944;42.590;12.630;2022-12-01T08:17:32;5.60;99.90
21568;DHT22;10944;42.590;12.630;2022-12-01T08:19:58;5.70;99.90
21568;DHT22;10944;42.590;12.630;2022-12-01T08:22:23;5.80;99.90
21568;DHT22;10944;42.590;12.630;2022-12-01T08:24:49;5.80;99.90
21568;DHT22;10944;42.590;12.630;2022-12-01T08:27:15;6.00;99.90
21568;DHT22;10944;42.590;12.630;2022-12-01T08:29:40;6.00;99.90
21568;DHT22;10944;42.590;12.630;2022-12-01T08:32:06;6.10;99.90
21568;DHT22;10944;42.590;12.630;2022-12-01T08:34:34;6.20;99.90
21568;DHT22;10944;42.590;12.630;2022-12-01T08:37:01;6.20;99.90
21568;DHT22;10944;42.590;12.630;2022-12-01T08:39:27;6.20;99.90
21568;DHT22;10944;42.590;12.630;2022-12-01T08:41:53;6.20;99.90
21568;DHT22;10944;42.590;12.630;2022-12-01T08:44:18;6.20;99.90
21568;DHT22;10944;42.590;12.630;2022-12-01T08:46:44;6.20;99.90
21568;DHT22;10944;42.590;12.630;2022-12-01T08:49:10;6.30;99.90
21568;DHT22;10944;42.590;12.630;2022-12-01T08:51:35;6.30;99.90
21568;DHT22;10944;42.590;12.630;2022-12-01T08:54:01;6.40;99.90
21568;DHT22;10944;42.590;12.630;2022-12-01T08:56:30;6.40;99.90
21568;DHT22;10944;42.590;12.630;2022-12-01T08:58:56;6.60;99.90
21568;DHT22;10944;42.590;12.630;2022-12-01T09:01:22;6.70;99.90
21568;DHT22;10944;42.590;12.630;2022-12-01T09:03:50;6.70;99.90
21568;DHT22;10944;42.590;12.630;2022-12-01T09:06:40;6.70;99.90
21568;DHT22;10944;42.590;12.630;2022-12-01T09:09:08;6.70;99.90
21568;DHT22;10944;42.590;12.630;2022-12-01T09:11:33;6.80;99.90
21568;DHT22;10944;42.590;12.630;2022-12-01T09:13:59;6.90;99.90
21568;DHT22;10944;42.590;12.630;2022-12-01T09:16:25;7.00;99.90
21568;DHT22;10944;42.590;12.630;2022-12-01T09:18:50;7.00;99.90
21568;DHT22;10944;42.590;12.630;2022-12-01T09:21:23;7.10;99.90
21568;DHT22;10944;42.590;12.630;2022-12-01T09:23:49;7.10;99.90
21568;DHT22;10944;42.590;12.630;2022-12-01T09:26:17;7.20;99.90
21568;DHT22;10944;42.590;12.630;2022-12-01T09:28:45;7.30;99.90
21568;DHT22;10944;42.590;12.630;2022-12-01T09:31:12;7.30;99.90
21568;DHT22;10944;42.590;12.630;2022-12-01T09:33:38;7.30;99.90
21568;DHT22;10944;42.590;12.630;2022-12-01T09:36:05;7.30;99.90
21568;DHT22;10944;42.590;12.630;2022-12-01T09:38:33;7.40;99.90
21568;DHT22;10944;42.590;12.630;2022-12-01T09:41:03;7.60;99.90
21568;DHT22;10944;42.590;12.630;2022-12-01T09:46:21;7.70;99.90
21568;DHT22;10944;42.590;12.630;2022-12-01T09:48:50;7.70;99.90
21568;DHT22;10944;42.590;12.630;2022-12-01T09:51:23;7.70;99.90
21568;DHT22;10944;42.590;12.630;2022-12-01T09:53:51;7.80;99.90
21568;DHT22;10944;42.590;12.630;2022-12-01T09:56:33;7.80;99.90
21568;DHT22;10944;42.590;12.630;2022-12-01T09:59:04;7.90;99.90
21568;DHT22;10944;42.590;12.630;2022-12-01T10:01:37;8.00;99.90
21568;DHT22;10944;42.590;12.630;2022-12-01T10:04:15;8.00;99.90
21568;DHT22;10944;42.590;12.630;2022-12-01T10:06:47;8.00;99.90
21568;DHT22;10944;42.590;12.630;2022-12-01T10:09:20;8.10;99.90
21568;DHT22;10944;42.590;12.630;2022-12-01T10:11:47;8.20;99.90
21568;DHT22;10944;42.590;12.630;2022-12-01T10:14:18;8.20;99.90
21568;DHT22;10944;42.590;12.630;2022-12-01T10:19:53;8.30;99.90
21568;DHT22;10944;42.590;12.630;2022-12-01T10:28:24;8.60;99.90
21568;DHT22;10944;42.590;12.630;2022-12-01T10:30:49;8.70;99.90
21568;DHT22;10944;42.590;12.630;2022-12-01T10:35:50;8.90;99.90
21568;DHT22;10944;42.590;12.630;2022-12-01T10:38:26;9.00;99.90
21568;DHT22;10944;42.590;12.630;2022-12-01T10:40:53;9.10;99.90
21568;DHT22;10944;42.590;12.630;2022-12-01T10:43:32;9.20;99.90
21568;DHT22;10944;42.590;12.630;2022-12-01T10:46:12;9.20;99.90
21568;DHT22;10944;42.590;12.630;2022-12-01T10:48:58;9.30;99.90
21568;DHT22;10944;42.590;12.630;2022-12-01T10:51:25;9.40;99.90
21568;DHT22;10944;42.590;12.630;2022-12-01T10:53:59;9.40;99.90
21568;DHT22;10944;42.590;12.630;2022-12-01T10:56:31;9.50;99.90
21568;DHT22;10944;42.590;12.630;2022-12-01T10:59:01;9.70;99.90
21568;DHT22;10944;42.590;12.630;2022-12-01T11:01:30;9.70;99.90
21568;DHT22;10944;42.590;12.630;2022-12-01T11:06:50;9.60;99.90
21568;DHT22;10944;42.590;12.630;2022-12-01T11:09:22;9.70;99.90
21568;DHT22;10944;42.590;12.630;2022-12-01T11:11:56;9.70;99.90
21568;DHT22;10944;42.590;12.630;2022-12-01T11:15:15;9.80;99.90
21568;DHT22;10944;42.590;12.630;2022-12-01T11:19:56;9.80;99.90
21568;DHT22;10944;42.590;12.630;2022-12-01T11:22:24;9.80;99.90
21568;DHT22;10944;42.590;12.630;2022-12-01T11:25:00;9.80;99.90
21568;DHT22;10944;42.590;12.630;2022-12-01T11:27:47;9.80;99.90
21568;DHT22;10944;42.590;12.630;2022-12-01T11:30:23;9.80;99.90
21568;DHT22;10944;42.590;12.630;2022-12-01T11:32:52;9.80;99.90
21568;DHT22;10944;42.590;12.630;2022-12-01T11:35:21;9.80;99.90
21568;DHT22;10944;42.590;12.630;2022-12-01T11:37:54;9.90;99.90
21568;DHT22;10944;42.590;12.630;2022-12-01T11:40:26;10.00;99.90
21568;DHT22;10944;42.590;12.630;2022-12-01T11:42:55;10.00;99.90
21568;DHT22;10944;42.590;12.630;2022-12-01T11:45:37;10.00;99.90
21568;DHT22;10944;42.590;12.630;2022-12-01T11:50:43;10.10;99.90
21568;DHT22;10944;42.590;12.630;2022-12-01T11:53:30;10.10;99.90
21568;DHT22;10944;42.590;12.630;2022-12-01T11:58:49;10.20;99.90
21568;DHT22;10944;42.590;12.630;2022-12-01T12:04:34;10.20;99.90
21568;DHT22;10944;42.590;12.630;2022-12-01T12:12:47;10.40;99.90
21568;DHT22;10944;42.590;12.630;2022-12-01T12:15:18;10.40;99.90
21568;DHT22;10944;42.590;12.630;2022-12-01T12:20:28;10.40;99.90
21568;DHT22;10944;42.590;12.630;2022-12-01T12:28:18;10.50;99.90
21568;DHT22;10944;42.590;12.630;2022-12-01T12:34:05;10.50;99.90
21568;DHT22;10944;42.590;12.630;2022-12-01T12:42:07;10.50;99.90
21568;DHT22;10944;42.590;12.630;2022-12-01T12:52:41;10.70;99.90
21568;DHT22;10944;42.590;12.630;2022-12-01T12:55:18;10.70;99.90
21568;DHT22;10944;42.590;12.630;2022-12-01T12:58:04;10.60;99.90
21568;DHT22;10944;42.590;12.630;2022-12-01T13:00:33;10.70;99.90
21568;DHT22;10944;42.590;12.630;2022-12-01T13:03:16;10.70;99.60
21568;DHT22;10944;42.590;12.630;2022-12-01T13:05:59;10.80;99.90
21568;DHT22;10944;42.590;12.630;2022-12-01T13:08:40;10.80;99.70
21568;DHT22;10944;42.590;12.630;2022-12-01T13:11:29;10.70;99.90
21568;DHT22;10944;42.590;12.630;2022-12-01T13:14:34;10.70;99.90
21568;DHT22;10944;42.590;12.630;2022-12-01T13:16:57;10.70;99.90
21568;DHT22;10944;42.590;12.630;2022-12-01T13:19:29;10.70;99.90
21568;DHT22;10944;42.590;12.630;2022-12-01T13:21:57;10.70;99.90
21568;DHT22;10944;42.590;12.630;2022-12-01T13:24:27;10.80;99.90
21568;DHT22;10944;42.590;12.630;2022-12-01T13:26:58;10.80;99.90
21568;DHT22;10944;42.590;12.630;2022-12-01T13:29:26;10.80;99.90
21568;DHT22;10944;42.590;12.630;2022-12-01T13:31:53;10.80;99.90
21568;DHT22;10944;42.590;12.630;2022-12-01T13:34:40;10.70;99.90
21568;DHT22;10944;42.590;12.630;2022-12-01T13:37:10;10.70;99.90
21568;DHT22;10944;42.590;12.630;2022-12-01T13:39:40;10.70;99.90
21568;DHT22;10944;42.590;12.630;2022-12-01T13:42:24;10.70;99.90
21568;DHT22;10944;42.590;12.630;2022-12-01T13:44:59;10.70;99.90
21568;DHT22;10944;42.590;12.630;2022-12-01T13:47:30;10.60;99.90
21568;DHT22;10944;42.590;12.630;2022-12-01T13:49:56;10.60;99.90
21568;DHT22;10944;42.590;12.630;2022-12-01T13:52:49;10.60;99.90
21568;DHT22;10944;42.590;12.630;2022-12-01T14:00:28;10.70;99.90
21568;DHT22;10944;42.590;12.630;2022-12-01T14:08:25;10.60;99.90
21568;DHT22;10944;42.590;12.630;2022-12-01T14:11:19;10.60;99.90
21568;DHT22;10944;42.590;12.630;2022-12-01T14:16:50;10.60;99.90
21568;DHT22;10944;42.590;12.630;2022-12-01T14:19:47;10.50;99.90
21568;DHT22;10944;42.590;12.630;2022-12-01T14:22:38;10.50;99.90
21568;DHT22;10944;42.590;12.630;2022-12-01T14:25:26;10.40;99.90
21568;DHT22;10944;42.590;12.630;2022-12-01T14:27:57;10.40;99.90
21568;DHT22;10944;42.590;12.630;2022-12-01T14:41:37;10.20;99.90
21568;DHT22;10944;42.590;12.630;2022-12-01T14:44:26;10.20;99.90
21568;DHT22;10944;42.590;12.630;2022-12-01T14:47:18;10.20;99.90
21568;DHT22;10944;42.590;12.630;2022-12-01T14:50:00;10.10;99.90
21568;DHT22;10944;42.590;12.630;2022-12-01T14:54:58;10.00;99.90
21568;DHT22;10944;42.590;12.630;2022-12-01T14:57:32;9.90;99.90
21568;DHT22;10944;42.590;12.630;2022-12-01T15:00:20;9.80;99.90
21568;DHT22;10944;42.590;12.630;2022-12-01T15:03:07;9.80;99.90
21568;DHT22;10944;42.590;12.630;2022-12-01T15:05:41;9.70;99.90
21568;DHT22;10944;42.590;12.630;2022-12-01T15:08:22;9.70;99.90
21568;DHT22;10944;42.590;12.630;2022-12-01T15:10:54;9.60;99.90
21568;DHT22;10944;42.590;12.630;2022-12-01T15:13:26;9.50;99.90
21568;DHT22;10944;42.590;12.630;2022-12-01T15:15:57;9.50;99.90
21568;DHT22;10944;42.590;12.630;2022-12-01T15:18:31;9.40;99.90
21568;DHT22;10944;42.590;12.630;2022-12-01T15:23:33;9.30;99.90
21568;DHT22;10944;42.590;12.630;2022-12-01T15:25:58;9.10;99.90
21568;DHT22;10944;42.590;12.630;2022-12-01T15:28:34;9.00;99.90
21568;DHT22;10944;42.590;12.630;2022-12-01T15:31:06;8.80;99.90
21568;DHT22;10944;42.590;12.630;2022-12-01T15:33:35;8.80;99.90
21568;DHT22;10944;42.590;12.630;2022-12-01T15:36:04;8.70;99.90
21568;DHT22;10944;42.590;12.630;2022-12-01T15:38:33;8.60;99.90
21568;DHT22;10944;42.590;12.630;2022-12-01T15:41:01;8.50;99.90
21568;DHT22;10944;42.590;12.630;2022-12-01T15:43:32;8.40;99.90
21568;DHT22;10944;42.590;12.630;2022-12-01T15:46:15;8.30;99.90
21568;DHT22;10944;42.590;12.630;2022-12-01T15:48:41;8.20;99.90
21568;DHT22;10944;42.590;12.630;2022-12-01T15:51:23;8.10;99.90
21568;DHT22;10944;42.590;12.630;2022-12-01T15:53:55;8.10;99.90
21568;DHT22;10944;42.590;12.630;2022-12-01T15:56:41;8.20;99.90
21568;DHT22;10944;42.590;12.630;2022-12-01T16:01:41;8.20;99.90
21568;DHT22;10944;42.590;12.630;2022-12-01T16:04:22;8.20;99.90
21568;DHT22;10944;42.590;12.630;2022-12-01T16:07:08;8.10;99.90
21568;DHT22;10944;42.590;12.630;2022-12-01T16:09:40;8.00;99.90
21568;DHT22;10944;42.590;12.630;2022-12-01T16:14:33;7.80;99.90
21568;DHT22;10944;42.590;12.630;2022-12-01T16:16:59;7.90;99.90
21568;DHT22;10944;42.590;12.630;2022-12-01T16:19:29;7.90;99.90
21568;DHT22;10944;42.590;12.630;2022-12-01T16:24:35;7.90;99.90
21568;DHT22;10944;42.590;12.630;2022-12-01T16:27:04;7.90;99.90
21568;DHT22;10944;42.590;12.630;2022-12-01T16:29:44;8.10;99.90
21568;DHT22;10944;42.590;12.630;2022-12-01T16:32:17;8.20;99.90
21568;DHT22;10944;42.590;12.630;2022-12-01T16:34:44;8.30;99.90
21568;DHT22;10944;42.590;12.630;2022-12-01T16:37:11;8.30;99.90
21568;DHT22;10944;42.590;12.630;2022-12-01T16:39:37;8.30;99.90
21568;DHT22;10944;42.590;12.630;2022-12-01T16:42:03;8.30;99.90
21568;DHT22;10944;42.590;12.630;2022-12-01T16:44:28;8.30;99.90
21568;DHT22;10944;42.590;12.630;2022-12-01T16:46:54;8.30;99.90
21568;DHT22;10944;42.590;12.630;2022-12-01T16:49:20;8.30;99.90
21568;DHT22;10944;42.590;12.630;2022-12-01T16:51:46;8.20;99.90
21568;DHT22;10944;42.590;12.630;2022-12-01T16:54:12;8.20;99.90
21568;DHT22;10944;42.590;12.630;2022-12-01T16:56:37;8.30;99.90
21568;DHT22;10944;42.590;12.630;2022-12-01T16:59:03;8.30;99.90
21568;DHT22;10944;42.590;12.630;2022-12-01T17:01:29;8.40;99.90
21568;DHT22;10944;42.590;12.630;2022-12-01T17:03:55;8.40;99.90
21568;DHT22;10944;42.590;12.630;2022-12-01T17:06:21;8.40;99.90
21568;DHT22;10944;42.590;12.630;2022-12-01T17:08:47;8.50;99.90
21568;DHT22;10944;42.590;12.630;2022-12-01T17:11:13;8.60;99.90
21568;DHT22;10944;42.590;12.630;2022-12-01T17:13:39;8.40;99.90
21568;DHT22;10944;42.590;12.630;2022-12-01T17:16:07;8.30;99.90
21568;DHT22;10944;42.590;12.630;2022-12-01T17:18:35;8.30;99.90
21568;DHT22;10944;42.590;12.630;2022-12-01T17:21:03;8.30;99.90
21568;DHT22;10944;42.590;12.630;2022-12-01T17:23:29;8.40;99.90
21568;DHT22;10944;42.590;12.630;2022-12-01T17:25:57;8.20;99.90
21568;DHT22;10944;42.590;12.630;2022-12-01T17:28:23;8.10;99.90
21568;DHT22;10944;42.590;12.630;2022-12-01T17:30:49;8.00;99.90
21568;DHT22;10944;42.590;12.630;2022-12-01T17:33:15;7.90;99.90
21568;DHT22;10944;42.590;12.630;2022-12-01T17:35:40;7.70;99.90
21568;DHT22;10944;42.590;12.630;2022-12-01T17:38:06;7.60;99.90
21568;DHT22;10944;42.590;12.630;2022-12-01T17:40:32;7.60;99.90
21568;DHT22;10944;42.590;12.630;2022-12-01T17:42:58;7.50;99.90
21568;DHT22;10944;42.590;12.630;2022-12-01T17:45:23;7.40;99.90
21568;DHT22;10944;42.590;12.630;2022-12-01T17:47:49;7.30;99.90